Time;durP1;ratioP1;P1;durP2;ratioP2;P2;SDS_P1;SDS_P2;PMS_P1;PMS_P2;Temp;Humidity;BMP_temperature;BMP_pressure;BME280_temperature;BME280_humidity;BME280_pressure;Samples;Min_cycle;Max_cycle;Signal;HPM_P1;HPM_P2
2022/03/20 00:00:35;;;;;;;;;;;11.70;99.90;;;;;;4966089;29;19907;-87
2022/03/20 00:03:09;;;;;;;;;;;11.60;99.90;;;;;;4966366;29;19906;-87
2022/03/20 00:05:38;;;;;;;;;;;11.70;99.90;;;;;;4966283;29;20383;-86
2022/03/20 00:08:11;;;;;;;;;;;11.60;99.90;;;;;;4964782;29;19922;-87
2022/03/20 00:10:37;;;;;;;;;;;11.60;99.90;;;;;;4966072;29;19946;-86
2022/03/20 00:13:06;;;;;;;;;;;11.60;99.90;;;;;;4965865;29;19907;-87
2022/03/20 00:15:32;;;;;;;;;;;11.60;99.90;;;;;;4964480;29;19907;-86
2022/03/20 00:17:57;;;;;;;;;;;11.60;99.90;;;;;;4964459;29;19944;-87
2022/03/20 00:20:23;;;;;;;;;;;11.60;99.90;;;;;;4966048;29;19906;-87
2022/03/20 00:22:48;;;;;;;;;;;11.50;99.90;;;;;;4964390;29;20218;-86
2022/03/20 00:25:14;;;;;;;;;;;11.50;99.90;;;;;;4966078;29;19966;-87
2022/03/20 00:27:39;;;;;;;;;;;11.60;99.90;;;;;;4965997;29;19996;-86
2022/03/20 00:30:05;;;;;;;;;;;11.60;99.90;;;;;;4966264;29;19914;-87
2022/03/20 00:32:31;;;;;;;;;;;11.50;99.90;;;;;;4965622;29;19914;-87
2022/03/20 00:34:59;;;;;;;;;;;11.50;99.90;;;;;;4964665;28;20087;-87
2022/03/20 00:37:26;;;;;;;;;;;11.50;99.90;;;;;;4965038;29;19913;-87
2022/03/20 00:39:51;;;;;;;;;;;11.50;99.90;;;;;;4963532;29;20521;-87
2022/03/20 00:42:17;;;;;;;;;;;11.50;99.90;;;;;;4964488;29;19906;-87
2022/03/20 00:44:42;;;;;;;;;;;11.40;99.90;;;;;;4965053;29;19918;-87
2022/03/20 00:47:08;;;;;;;;;;;11.40;99.90;;;;;;4963566;29;19977;-86
2022/03/20 00:49:33;;;;;;;;;;;11.40;99.90;;;;;;4961681;29;19914;-87
2022/03/20 00:51:59;;;;;;;;;;;11.40;99.90;;;;;;4965539;29;19907;-87
2022/03/20 00:54:24;;;;;;;;;;;11.30;99.90;;;;;;4966095;29;19946;-87
2022/03/20 00:56:50;;;;;;;;;;;11.40;99.90;;;;;;4965726;29;19919;-87
2022/03/20 00:59:16;;;;;;;;;;;11.40;99.90;;;;;;4965260;29;19945;-87
2022/03/20 01:01:42;;;;;;;;;;;11.40;99.90;;;;;;4963773;29;19918;-87
2022/03/20 01:04:08;;;;;;;;;;;11.30;99.90;;;;;;4964866;29;19977;-87
2022/03/20 01:06:34;;;;;;;;;;;11.30;99.90;;;;;;4964947;29;19914;-87
2022/03/20 01:08:59;;;;;;;;;;;11.40;99.90;;;;;;4963890;29;19915;-86
2022/03/20 01:11:25;;;;;;;;;;;11.40;99.90;;;;;;4965139;29;19981;-86
2022/03/20 01:13:54;;;;;;;;;;;11.50;99.90;;;;;;4964012;29;19930;-87
2022/03/20 01:16:20;;;;;;;;;;;11.40;99.90;;;;;;4963557;29;19970;-87
2022/03/20 01:18:45;;;;;;;;;;;11.40;99.90;;;;;;4964231;29;20178;-86
2022/03/20 01:21:12;;;;;;;;;;;11.40;99.90;;;;;;4963445;29;20257;-87
2022/03/20 01:23:38;;;;;;;;;;;11.30;99.90;;;;;;4965055;29;19938;-87
2022/03/20 01:26:04;;;;;;;;;;;11.30;99.90;;;;;;4965481;29;19929;-86
2022/03/20 01:28:30;;;;;;;;;;;11.30;99.90;;;;;;4964533;29;20106;-87
2022/03/20 01:30:56;;;;;;;;;;;11.30;99.90;;;;;;4963555;29;19918;-87
2022/03/20 01:33:22;;;;;;;;;;;11.30;99.90;;;;;;4963581;29;19981;-87
2022/03/20 01:35:47;;;;;;;;;;;11.30;99.90;;;;;;4964713;29;20112;-87
2022/03/20 01:38:19;;;;;;;;;;;11.30;99.90;;;;;;4963738;29;19913;-87
2022/03/20 01:40:46;;;;;;;;;;;11.20;99.90;;;;;;4962790;29;19915;-87
2022/03/20 01:43:12;;;;;;;;;;;11.20;99.90;;;;;;4964925;29;20139;-87
2022/03/20 01:45:37;;;;;;;;;;;11.20;99.90;;;;;;4962608;28;19915;-87
2022/03/20 01:48:03;;;;;;;;;;;11.20;99.90;;;;;;4963249;29;19907;-87
2022/03/20 01:50:28;;;;;;;;;;;11.20;99.90;;;;;;4964454;29;20117;-87
2022/03/20 01:52:54;;;;;;;;;;;11.30;99.90;;;;;;4963294;29;20127;-87
2022/03/20 01:55:21;;;;;;;;;;;11.20;99.90;;;;;;4963598;29;19918;-87
2022/03/20 01:57:47;;;;;;;;;;;11.30;99.90;;;;;;4959574;29;20026;-87
2022/03/20 02:00:16;;;;;;;;;;;11.30;99.90;;;;;;4944563;29;20163;-87
2022/03/20 02:02:42;;;;;;;;;;;11.30;99.90;;;;;;4945129;29;19903;-87
2022/03/20 02:05:09;;;;;;;;;;;11.20;99.90;;;;;;4945151;29;20086;-87
2022/03/20 02:07:35;;;;;;;;;;;11.20;99.90;;;;;;4959871;29;19962;-86
2022/03/20 02:10:03;;;;;;;;;;;11.30;99.90;;;;;;4944351;29;19915;-87
2022/03/20 02:12:29;;;;;;;;;;;11.20;99.90;;;;;;4958542;29;19914;-87
2022/03/20 02:14:56;;;;;;;;;;;11.20;99.90;;;;;;4943931;29;19954;-87
2022/03/20 02:17:21;;;;;;;;;;;11.10;99.90;;;;;;4944740;29;19907;-87
2022/03/20 02:19:47;;;;;;;;;;;11.10;99.90;;;;;;4944026;29;20127;-87
2022/03/20 02:22:13;;;;;;;;;;;11.10;99.90;;;;;;4943886;29;19913;-87
2022/03/20 02:24:40;;;;;;;;;;;11.10;99.90;;;;;;4958601;29;19915;-87
2022/03/20 02:27:07;;;;;;;;;;;11.10;99.90;;;;;;4958807;29;20315;-87
2022/03/20 02:29:33;;;;;;;;;;;11.10;99.90;;;;;;4959117;29;19915;-87
2022/03/20 02:31:59;;;;;;;;;;;11.00;99.90;;;;;;4959182;29;19907;-87
2022/03/20 02:34:30;;;;;;;;;;;11.00;99.90;;;;;;4943884;29;19907;-87
2022/03/20 02:36:56;;;;;;;;;;;11.00;99.90;;;;;;4943517;29;19907;-87
2022/03/20 02:39:22;;;;;;;;;;;11.10;99.90;;;;;;4943372;29;19953;-87
2022/03/20 02:41:48;;;;;;;;;;;11.00;99.90;;;;;;4943373;29;19915;-87
2022/03/20 02:44:14;;;;;;;;;;;11.10;99.90;;;;;;4943514;29;19939;-87
2022/03/20 02:46:40;;;;;;;;;;;11.10;99.90;;;;;;4943542;29;19940;-87
2022/03/20 02:49:06;;;;;;;;;;;11.10;99.90;;;;;;4944181;29;19915;-87
2022/03/20 02:51:32;;;;;;;;;;;11.10;99.90;;;;;;4943429;29;19907;-87
2022/03/20 02:53:57;;;;;;;;;;;11.00;99.90;;;;;;4958302;29;19910;-87
2022/03/20 02:56:23;;;;;;;;;;;11.00;99.90;;;;;;4943948;29;19915;-87
2022/03/20 02:58:49;;;;;;;;;;;10.90;99.90;;;;;;4962896;29;19915;-87
2022/03/20 03:01:17;;;;;;;;;;;10.90;99.90;;;;;;4961895;29;19907;-87
2022/03/20 03:03:45;;;;;;;;;;;10.90;99.90;;;;;;4961147;29;20098;-87
2022/03/20 03:06:14;;;;;;;;;;;11.00;99.90;;;;;;4961510;29;19914;-87
2022/03/20 03:11:24;;;;;;;;;;;11.00;99.90;;;;;;4962221;29;20213;-87
2022/03/20 03:13:49;;;;;;;;;;;11.00;99.90;;;;;;4961205;29;19907;-87
2022/03/20 03:16:16;;;;;;;;;;;11.00;99.90;;;;;;4961679;29;19906;-87
2022/03/20 03:18:43;;;;;;;;;;;11.00;99.90;;;;;;4964046;29;20144;-87
2022/03/20 03:21:09;;;;;;;;;;;11.00;99.90;;;;;;4962667;29;19906;-87
2022/03/20 03:23:36;;;;;;;;;;;11.00;99.90;;;;;;4962741;29;19922;-87
2022/03/20 03:26:02;;;;;;;;;;;10.90;99.90;;;;;;4963076;29;19906;-87
2022/03/20 03:28:34;;;;;;;;;;;10.90;99.90;;;;;;4961616;29;20005;-87
2022/03/20 03:31:00;;;;;;;;;;;10.90;99.90;;;;;;4962250;29;19934;-87
2022/03/20 03:33:26;;;;;;;;;;;10.90;99.90;;;;;;4963160;29;19930;-87
2022/03/20 03:35:54;;;;;;;;;;;10.90;99.90;;;;;;4963491;29;19918;-87
2022/03/20 03:38:21;;;;;;;;;;;10.80;99.90;;;;;;4962551;29;20210;-87
2022/03/20 03:40:47;;;;;;;;;;;10.70;99.90;;;;;;4961449;29;20147;-87
2022/03/20 03:43:15;;;;;;;;;;;10.80;99.90;;;;;;4962892;29;19906;-87
2022/03/20 03:45:41;;;;;;;;;;;10.80;99.90;;;;;;4963414;29;19906;-86
2022/03/20 03:48:06;;;;;;;;;;;10.80;99.90;;;;;;4945839;29;20191;-87
2022/03/20 03:50:32;;;;;;;;;;;10.80;99.90;;;;;;4961864;29;19981;-86
2022/03/20 03:52:58;;;;;;;;;;;10.80;99.90;;;;;;4962960;29;19966;-87
2022/03/20 03:55:23;;;;;;;;;;;10.80;99.90;;;;;;4961249;29;20194;-87
2022/03/20 03:57:50;;;;;;;;;;;10.70;99.90;;;;;;4961578;29;20014;-87
2022/03/20 04:00:17;;;;;;;;;;;10.70;99.90;;;;;;4961372;29;19911;-87
2022/03/20 04:02:43;;;;;;;;;;;10.70;99.90;;;;;;4962771;29;20142;-87
2022/03/20 04:05:09;;;;;;;;;;;10.70;99.90;;;;;;4961467;29;19978;-87
2022/03/20 04:07:35;;;;;;;;;;;10.70;99.90;;;;;;4962371;29;20044;-87
2022/03/20 04:10:02;;;;;;;;;;;10.70;99.90;;;;;;4963867;28;19961;-87
2022/03/20 04:12:28;;;;;;;;;;;10.70;99.90;;;;;;4965028;29;19906;-87
2022/03/20 04:14:54;;;;;;;;;;;10.70;99.90;;;;;;4965044;29;19913;-87
2022/03/20 04:17:19;;;;;;;;;;;10.60;99.90;;;;;;4963853;29;19906;-87
2022/03/20 04:19:45;;;;;;;;;;;10.60;99.90;;;;;;4964575;29;19977;-87
2022/03/20 04:22:10;;;;;;;;;;;10.60;99.90;;;;;;4963946;29;19906;-87
2022/03/20 04:24:36;;;;;;;;;;;10.60;99.90;;;;;;4965274;29;19922;-87
2022/03/20 04:27:02;;;;;;;;;;;10.70;99.90;;;;;;4963977;29;20127;-86
2022/03/20 04:29:28;;;;;;;;;;;10.60;99.90;;;;;;4963640;29;19923;-87
2022/03/20 04:31:54;;;;;;;;;;;10.60;99.90;;;;;;4963637;29;19946;-87
2022/03/20 04:34:20;;;;;;;;;;;10.60;99.90;;;;;;4965984;29;20170;-87
2022/03/20 04:36:46;;;;;;;;;;;10.60;99.90;;;;;;4965459;29;19906;-87
2022/03/20 04:39:11;;;;;;;;;;;10.60;99.90;;;;;;4965623;29;19937;-87
2022/03/20 04:41:37;;;;;;;;;;;10.60;99.90;;;;;;4963776;29;19925;-86
2022/03/20 04:44:03;;;;;;;;;;;10.60;99.90;;;;;;4965768;29;19918;-87
2022/03/20 04:46:28;;;;;;;;;;;10.60;99.90;;;;;;4965544;29;19906;-87
2022/03/20 04:59:51;;;;;;;;;;;10.70;99.90;;;;;;4964653;29;19913;-86
2022/03/20 05:02:17;;;;;;;;;;;10.70;99.90;;;;;;4965643;29;19906;-87
2022/03/20 05:04:42;;;;;;;;;;;10.60;99.90;;;;;;4965717;29;20134;-87
2022/03/20 05:07:08;;;;;;;;;;;10.60;99.90;;;;;;4965079;29;19906;-87
2022/03/20 05:15:09;;;;;;;;;;;10.60;99.90;;;;;;4964727;29;19941;-86
2022/03/20 05:17:34;;;;;;;;;;;10.70;99.90;;;;;;4947884;29;20098;-87
2022/03/20 05:20:00;;;;;;;;;;;10.70;99.90;;;;;;4964797;28;20097;-87
2022/03/20 05:22:25;;;;;;;;;;;10.70;99.90;;;;;;4965325;29;20317;-87
2022/03/20 05:24:51;;;;;;;;;;;10.60;99.90;;;;;;4964063;29;19907;-87
2022/03/20 05:27:17;;;;;;;;;;;10.60;99.90;;;;;;4964156;29;19918;-86
2022/03/20 05:29:43;;;;;;;;;;;10.50;99.90;;;;;;4964280;29;19921;-87
2022/03/20 05:32:08;;;;;;;;;;;10.50;99.90;;;;;;4963896;29;20125;-87
2022/03/20 05:34:34;;;;;;;;;;;10.50;99.90;;;;;;4964632;29;19913;-87
2022/03/20 05:37:00;;;;;;;;;;;10.50;99.90;;;;;;4964200;29;19907;-87
2022/03/20 05:39:25;;;;;;;;;;;10.40;99.90;;;;;;4964424;29;19906;-87
2022/03/20 05:41:51;;;;;;;;;;;10.50;99.90;;;;;;4963622;29;19942;-87
2022/03/20 05:44:26;;;;;;;;;;;10.40;99.90;;;;;;4963299;29;19913;-87
2022/03/20 05:46:52;;;;;;;;;;;10.30;99.90;;;;;;4963460;29;20213;-87
2022/03/20 05:49:19;;;;;;;;;;;10.40;99.90;;;;;;4963974;29;20226;-87
2022/03/20 05:51:46;;;;;;;;;;;10.30;99.90;;;;;;4963643;29;19913;-87
2022/03/20 05:54:12;;;;;;;;;;;10.30;99.90;;;;;;4964068;29;19907;-88
2022/03/20 05:59:21;;;;;;;;;;;10.30;99.90;;;;;;4964871;29;19921;-91
2022/03/20 06:01:51;;;;;;;;;;;10.30;99.90;;;;;;4964129;29;19942;-91
2022/03/20 06:04:20;;;;;;;;;;;10.30;99.90;;;;;;4963413;29;19934;-80
2022/03/20 06:06:45;;;;;;;;;;;10.30;99.90;;;;;;4964533;29;20001;-88
2022/03/20 06:09:11;;;;;;;;;;;10.30;99.90;;;;;;4949093;29;20136;-88
2022/03/20 06:11:37;;;;;;;;;;;10.30;99.90;;;;;;4952586;29;19910;-88
2022/03/20 06:14:06;;;;;;;;;;;10.30;99.90;;;;;;4956394;29;20110;-88
2022/03/20 06:16:32;;;;;;;;;;;10.30;99.90;;;;;;4955995;29;20214;-89
2022/03/20 06:18:58;;;;;;;;;;;10.20;99.90;;;;;;4951414;29;19914;-88
2022/03/20 06:21:24;;;;;;;;;;;10.20;99.90;;;;;;4945730;29;19934;-89
2022/03/20 06:23:50;;;;;;;;;;;10.20;99.90;;;;;;4932997;29;19918;-89
2022/03/20 06:26:17;;;;;;;;;;;10.20;99.90;;;;;;4934337;29;19910;-88
2022/03/20 06:28:43;;;;;;;;;;;10.20;99.90;;;;;;4951655;29;19922;-88
2022/03/20 06:31:10;;;;;;;;;;;10.20;99.90;;;;;;4950449;28;20355;-89
2022/03/20 06:33:37;;;;;;;;;;;10.20;99.90;;;;;;4961736;29;20066;-88
2022/03/20 06:36:03;;;;;;;;;;;10.20;99.90;;;;;;4952600;29;20602;-89
2022/03/20 06:38:30;;;;;;;;;;;10.20;99.90;;;;;;4951804;29;19962;-89
2022/03/20 06:40:56;;;;;;;;;;;10.20;99.90;;;;;;4951446;29;19906;-89
2022/03/20 06:43:21;;;;;;;;;;;10.30;99.90;;;;;;4935000;29;20270;-88
2022/03/20 06:45:47;;;;;;;;;;;10.30;99.90;;;;;;4934129;29;19927;-89
2022/03/20 06:48:12;;;;;;;;;;;10.30;99.90;;;;;;4962320;29;19911;-89
2022/03/20 06:50:38;;;;;;;;;;;10.30;99.90;;;;;;4963382;29;19953;-89
2022/03/20 06:53:06;;;;;;;;;;;10.40;99.90;;;;;;4942679;29;20007;-88
2022/03/20 06:55:32;;;;;;;;;;;10.40;99.90;;;;;;4957958;29;19907;-89
2022/03/20 06:57:58;;;;;;;;;;;10.40;99.90;;;;;;4961273;29;19928;-88
2022/03/20 07:00:25;;;;;;;;;;;10.40;99.90;;;;;;4963215;29;19961;-88
2022/03/20 07:02:55;;;;;;;;;;;10.50;99.90;;;;;;4963306;29;20193;-89
2022/03/20 07:05:21;;;;;;;;;;;10.40;99.90;;;;;;4963374;29;19906;-89
2022/03/20 07:07:47;;;;;;;;;;;10.50;99.90;;;;;;4958289;29;19906;-89
2022/03/20 07:10:15;;;;;;;;;;;10.50;99.90;;;;;;4944924;29;19921;-89
2022/03/20 07:12:41;;;;;;;;;;;10.50;99.90;;;;;;4931552;29;19931;-88
2022/03/20 07:15:07;;;;;;;;;;;10.60;99.90;;;;;;4935408;29;20007;-88
2022/03/20 07:17:36;;;;;;;;;;;10.70;99.90;;;;;;4935157;29;19957;-91
2022/03/20 07:20:02;;;;;;;;;;;10.70;99.90;;;;;;4951025;29;19910;-90
2022/03/20 07:22:28;;;;;;;;;;;10.80;99.90;;;;;;4950790;29;19981;-89
2022/03/20 07:24:53;;;;;;;;;;;10.80;99.90;;;;;;4944375;29;19927;-89
2022/03/20 07:30:04;;;;;;;;;;;10.90;99.90;;;;;;4948578;29;19938;-90
2022/03/20 07:32:29;;;;;;;;;;;10.90;99.90;;;;;;4950495;29;19914;-89
2022/03/20 07:34:55;;;;;;;;;;;11.00;99.90;;;;;;4948949;28;19928;-89
2022/03/20 07:37:21;;;;;;;;;;;11.00;99.90;;;;;;4950251;29;19954;-90
2022/03/20 07:39:48;;;;;;;;;;;11.10;99.90;;;;;;4952218;29;20001;-90
2022/03/20 07:42:14;;;;;;;;;;;11.10;99.90;;;;;;4952158;29;19965;-90
2022/03/20 07:44:40;;;;;;;;;;;11.10;99.90;;;;;;4936958;29;19964;-90
2022/03/20 07:47:08;;;;;;;;;;;11.10;99.90;;;;;;4955958;29;19950;-90
2022/03/20 07:49:34;;;;;;;;;;;11.10;99.90;;;;;;4945030;29;19950;-88
2022/03/20 07:52:00;;;;;;;;;;;11.20;99.90;;;;;;4936742;29;19911;-89
2022/03/20 07:54:26;;;;;;;;;;;11.20;99.90;;;;;;4938726;29;19939;-88
2022/03/20 07:56:51;;;;;;;;;;;11.30;99.90;;;;;;4917659;29;19998;-88
2022/03/20 07:59:17;;;;;;;;;;;11.30;99.90;;;;;;4935907;29;20295;-87
2022/03/20 08:01:43;;;;;;;;;;;11.40;99.90;;;;;;4919234;29;20375;-88
2022/03/20 08:04:09;;;;;;;;;;;11.40;99.90;;;;;;4936337;29;19922;-88
2022/03/20 08:06:34;;;;;;;;;;;11.50;99.90;;;;;;4936128;29;19971;-89
2022/03/20 08:09:00;;;;;;;;;;;11.50;99.90;;;;;;4934978;29;19918;-88
2022/03/20 08:11:29;;;;;;;;;;;11.40;99.90;;;;;;4935192;29;19911;-89
2022/03/20 08:13:55;;;;;;;;;;;11.50;99.90;;;;;;4936061;29;19918;-89
2022/03/20 08:16:22;;;;;;;;;;;11.50;99.90;;;;;;4936417;29;19911;-90
2022/03/20 08:18:50;;;;;;;;;;;11.50;99.90;;;;;;4937272;29;19911;-90
2022/03/20 08:21:16;;;;;;;;;;;11.40;99.90;;;;;;4937680;29;19953;-89
2022/03/20 08:23:42;;;;;;;;;;;11.40;99.90;;;;;;4936301;29;20002;-89
2022/03/20 08:26:08;;;;;;;;;;;11.50;99.90;;;;;;4936325;29;19918;-89
2022/03/20 08:28:45;;;;;;;;;;;11.50;99.90;;;;;;4918561;29;19921;-89
2022/03/20 08:31:10;;;;;;;;;;;11.60;99.90;;;;;;4935734;29;19915;-89
2022/03/20 08:33:36;;;;;;;;;;;11.70;99.90;;;;;;4935713;29;19910;-89
2022/03/20 08:36:03;;;;;;;;;;;11.80;99.90;;;;;;4918508;29;19911;-88
2022/03/20 08:38:28;;;;;;;;;;;11.80;99.90;;;;;;4935614;29;19965;-88
2022/03/20 08:40:54;;;;;;;;;;;11.90;99.90;;;;;;4934649;29;19958;-89
2022/03/20 08:43:21;;;;;;;;;;;12.00;99.90;;;;;;4918470;29;20513;-89
2022/03/20 08:45:47;;;;;;;;;;;12.00;99.90;;;;;;4918329;29;19950;-88
2022/03/20 08:48:14;;;;;;;;;;;12.00;99.90;;;;;;4934736;29;21603;-89
2022/03/20 08:50:40;;;;;;;;;;;12.10;99.90;;;;;;4935670;29;19911;-88
2022/03/20 08:53:05;;;;;;;;;;;12.10;99.90;;;;;;4935600;29;19918;-89
2022/03/20 08:55:33;;;;;;;;;;;12.10;99.90;;;;;;4917894;29;20347;-89
2022/03/20 08:57:59;;;;;;;;;;;12.20;99.90;;;;;;4934170;29;20030;-88
2022/03/20 09:00:25;;;;;;;;;;;12.20;99.90;;;;;;4918148;29;19969;-89
2022/03/20 09:02:51;;;;;;;;;;;12.30;99.90;;;;;;4935695;29;19911;-88
2022/03/20 09:05:17;;;;;;;;;;;12.40;99.90;;;;;;4935703;29;20332;-89
2022/03/20 09:07:44;;;;;;;;;;;12.50;99.90;;;;;;4935168;29;19911;-89
2022/03/20 09:10:11;;;;;;;;;;;12.50;99.90;;;;;;4935222;29;20530;-88
2022/03/20 09:12:40;;;;;;;;;;;12.50;99.90;;;;;;4935160;29;19958;-89
2022/03/20 09:15:09;;;;;;;;;;;12.60;99.90;;;;;;4933900;29;19998;-90
2022/03/20 09:20:19;;;;;;;;;;;12.70;99.90;;;;;;4935113;29;19962;-88
2022/03/20 09:22:44;;;;;;;;;;;12.90;99.90;;;;;;4935383;29;19911;-88
2022/03/20 09:25:10;;;;;;;;;;;12.80;99.90;;;;;;4934854;29;19926;-90
2022/03/20 09:27:36;;;;;;;;;;;13.00;99.90;;;;;;4933536;29;19911;-88
2022/03/20 09:30:03;;;;;;;;;;;13.10;99.90;;;;;;4934643;29;19925;-88
2022/03/20 09:32:28;;;;;;;;;;;13.20;99.90;;;;;;4936300;29;20335;-86
2022/03/20 09:34:54;;;;;;;;;;;13.20;99.90;;;;;;4937946;29;19913;-88
2022/03/20 09:37:19;;;;;;;;;;;13.20;99.90;;;;;;4934434;29;20150;-87
2022/03/20 09:39:45;;;;;;;;;;;13.40;99.90;;;;;;4936344;29;20279;-86
2022/03/20 09:42:11;;;;;;;;;;;13.60;99.90;;;;;;4939318;29;20187;-87
2022/03/20 09:44:40;;;;;;;;;;;13.60;99.90;;;;;;4937898;29;20323;-87
2022/03/20 09:47:12;;;;;;;;;;;13.60;99.90;;;;;;4938478;29;19958;-87
2022/03/20 09:49:39;;;;;;;;;;;13.70;99.90;;;;;;4938265;29;19919;-86
2022/03/20 09:52:06;;;;;;;;;;;13.80;99.90;;;;;;4937838;29;19910;-87
2022/03/20 09:54:31;;;;;;;;;;;13.90;99.90;;;;;;4938335;29;19915;-88
2022/03/20 09:56:59;;;;;;;;;;;14.10;99.90;;;;;;4939928;29;19933;-87
2022/03/20 09:59:25;;;;;;;;;;;14.10;99.90;;;;;;4922327;29;19914;-88
2022/03/20 10:01:50;;;;;;;;;;;14.10;99.90;;;;;;4921603;29;19910;-88
2022/03/20 10:04:16;;;;;;;;;;;14.30;99.90;;;;;;4937220;29;20288;-86
2022/03/20 10:06:42;;;;;;;;;;;14.40;99.90;;;;;;4936396;29;19997;-85
2022/03/20 10:09:09;;;;;;;;;;;14.40;99.90;;;;;;4935003;29;19919;-89
2022/03/20 10:11:35;;;;;;;;;;;14.40;99.90;;;;;;4917644;29;19934;-91
2022/03/20 10:14:08;;;;;;;;;;;14.40;99.90;;;;;;4933678;29;19911;-92
2022/03/20 10:16:34;;;;;;;;;;;14.50;99.90;;;;;;4933686;29;19911;-92
2022/03/20 10:19:00;;;;;;;;;;;14.60;99.90;;;;;;4933356;29;20272;-92
2022/03/20 10:21:45;;;;;;;;;;;14.70;99.90;;;;;;4933266;29;19911;-93
2022/03/20 10:24:17;;;;;;;;;;;14.70;99.90;;;;;;4933537;29;20171;-93
2022/03/20 10:26:43;;;;;;;;;;;14.80;99.90;;;;;;4933543;29;19919;-92
2022/03/20 10:29:16;;;;;;;;;;;14.80;99.90;;;;;;4933229;29;19919;-92
2022/03/20 10:31:52;;;;;;;;;;;14.90;99.90;;;;;;4933295;29;19915;-91
2022/03/20 10:34:18;;;;;;;;;;;15.10;99.90;;;;;;4934678;29;19910;-92
2022/03/20 10:36:43;;;;;;;;;;;15.40;99.90;;;;;;4933474;29;19938;-92
2022/03/20 10:39:19;;;;;;;;;;;15.60;99.90;;;;;;4934308;29;19954;-91
2022/03/20 10:41:45;;;;;;;;;;;15.70;99.90;;;;;;4937726;29;19953;-91
2022/03/20 10:44:15;;;;;;;;;;;15.70;99.90;;;;;;4937463;29;20380;-91
2022/03/20 10:46:41;;;;;;;;;;;16.00;99.90;;;;;;4932950;29;20152;-88
2022/03/20 10:49:07;;;;;;;;;;;16.00;99.90;;;;;;4933763;29;19962;-89
2022/03/20 10:51:41;;;;;;;;;;;16.00;99.90;;;;;;4933725;29;19911;-89
2022/03/20 10:54:20;;;;;;;;;;;16.10;99.90;;;;;;4933590;29;19938;-92
2022/03/20 10:56:52;;;;;;;;;;;16.10;99.90;;;;;;4932404;29;19963;-91
2022/03/20 10:59:17;;;;;;;;;;;16.00;99.90;;;;;;4933381;29;20264;-92
2022/03/20 11:01:47;;;;;;;;;;;15.90;99.90;;;;;;4916576;29;19911;-90
2022/03/20 11:04:14;;;;;;;;;;;15.80;99.90;;;;;;4932256;29;19911;-90
2022/03/20 11:06:43;;;;;;;;;;;15.90;99.90;;;;;;4932327;29;20375;-90
2022/03/20 11:09:09;;;;;;;;;;;16.00;99.90;;;;;;4932060;29;19915;-90
2022/03/20 11:11:39;;;;;;;;;;;16.20;99.90;;;;;;4933626;29;19982;-91
2022/03/20 11:14:05;;;;;;;;;;;16.20;99.90;;;;;;4932106;29;19917;-90
2022/03/20 11:16:33;;;;;;;;;;;16.20;99.90;;;;;;4933490;29;19957;-87
2022/03/20 11:18:59;;;;;;;;;;;16.20;99.90;;;;;;4935888;29;19914;-88
2022/03/20 11:21:27;;;;;;;;;;;16.40;99.90;;;;;;4937949;28;19918;-87
2022/03/20 11:23:53;;;;;;;;;;;16.40;99.90;;;;;;4953972;28;19926;-88
2022/03/20 11:26:21;;;;;;;;;;;16.60;99.90;;;;;;4975575;28;19910;-88
2022/03/20 11:28:50;;;;;;;;;;;16.80;99.90;;;;;;4975216;28;19960;-87
2022/03/20 11:31:15;;;;;;;;;;;17.00;99.90;;;;;;4975732;28;20355;-87
2022/03/20 11:33:42;;;;;;;;;;;17.00;99.90;;;;;;4975239;28;19917;-87
2022/03/20 11:36:08;;;;;;;;;;;17.00;99.90;;;;;;4975392;28;20397;-87
2022/03/20 11:38:35;;;;;;;;;;;17.00;99.90;;;;;;4975280;28;20009;-87
2022/03/20 11:41:05;;;;;;;;;;;17.10;99.90;;;;;;4956650;28;19910;-88
2022/03/20 11:43:31;;;;;;;;;;;17.20;99.90;;;;;;4955980;29;19910;-87
2022/03/20 11:46:21;;;;;;;;;;;17.20;99.90;;;;;;4956092;29;19910;-87
2022/03/20 11:49:06;;;;;;;;;;;17.40;99.90;;;;;;4938383;29;20359;-87
2022/03/20 11:51:50;;;;;;;;;;;17.70;99.90;;;;;;4962080;28;20383;-80
2022/03/20 11:54:15;;;;;;;;;;;17.90;99.90;;;;;;4943491;29;20414;-86
2022/03/20 11:56:41;;;;;;;;;;;17.80;99.90;;;;;;4940949;29;19911;-79
2022/03/20 11:59:26;;;;;;;;;;;17.60;99.90;;;;;;4938020;29;20002;-80
2022/03/20 12:02:01;;;;;;;;;;;17.70;99.90;;;;;;4932797;29;19911;-79
2022/03/20 12:04:33;;;;;;;;;;;17.70;99.90;;;;;;4935705;29;19938;-84
2022/03/20 12:07:03;;;;;;;;;;;17.80;99.90;;;;;;4935948;29;20018;-79
2022/03/20 12:09:48;;;;;;;;;;;18.00;99.90;;;;;;4934961;29;20380;-79
2022/03/20 12:12:23;;;;;;;;;;;18.00;99.90;;;;;;4925584;29;19967;-79
2022/03/20 12:14:53;;;;;;;;;;;18.10;99.90;;;;;;4936237;29;19915;-79
2022/03/20 12:17:19;;;;;;;;;;;18.30;99.90;;;;;;4936281;29;19918;-79
2022/03/20 12:19:48;;;;;;;;;;;18.50;99.90;;;;;;4935769;29;20041;-79
2022/03/20 12:22:19;;;;;;;;;;;18.50;99.90;;;;;;4935757;29;19918;-79
2022/03/20 12:24:51;;;;;;;;;;;18.30;99.90;;;;;;4936375;29;20322;-78
2022/03/20 12:29:46;;;;;;;;;;;18.10;99.90;;;;;;4934669;29;19919;-78
2022/03/20 12:32:15;;;;;;;;;;;18.30;99.90;;;;;;4935889;29;19946;-79
2022/03/20 12:34:44;;;;;;;;;;;18.40;99.90;;;;;;4935882;29;19911;-78
2022/03/20 12:37:32;;;;;;;;;;;18.50;99.90;;;;;;4936410;29;19917;-78
2022/03/20 12:40:01;;;;;;;;;;;18.60;99.90;;;;;;4936287;29;20102;-79
2022/03/20 12:42:26;;;;;;;;;;;18.80;99.90;;;;;;4935694;29;20010;-79
2022/03/20 12:44:52;;;;;;;;;;;19.20;99.90;;;;;;4935990;29;20001;-79
2022/03/20 12:47:18;;;;;;;;;;;19.20;99.90;;;;;;4935654;29;20026;-78
2022/03/20 12:49:46;;;;;;;;;;;19.10;99.90;;;;;;4935427;29;19946;-86
2022/03/20 12:52:12;;;;;;;;;;;19.10;99.90;;;;;;4935229;29;20287;-85
2022/03/20 12:54:38;;;;;;;;;;;19.40;99.90;;;;;;4936670;29;20446;-86
2022/03/20 12:57:04;;;;;;;;;;;19.60;99.50;;;;;;4940728;29;20014;-87
2022/03/20 12:59:30;;;;;;;;;;;19.40;99.90;;;;;;4955055;29;19911;-87
2022/03/20 13:01:55;;;;;;;;;;;19.30;99.80;;;;;;4954478;29;19986;-86
2022/03/20 13:04:21;;;;;;;;;;;19.30;99.90;;;;;;4954982;29;19911;-87
2022/03/20 13:06:47;;;;;;;;;;;19.70;99.90;;;;;;4955265;29;19910;-87
2022/03/20 13:09:14;;;;;;;;;;;20.10;99.90;;;;;;4954162;29;19934;-88
2022/03/20 13:11:51;;;;;;;;;;;20.10;99.90;;;;;;4955023;29;19961;-87
2022/03/20 13:14:17;;;;;;;;;;;20.00;99.00;;;;;;4954436;29;19914;-87
2022/03/20 13:16:47;;;;;;;;;;;19.90;99.20;;;;;;4954884;29;19911;-87
2022/03/20 13:19:12;;;;;;;;;;;20.10;99.30;;;;;;4956112;29;20488;-87
2022/03/20 13:21:48;;;;;;;;;;;20.00;98.50;;;;;;4953752;29;20014;-87
2022/03/20 13:24:14;;;;;;;;;;;19.90;98.30;;;;;;4953709;29;19918;-87
2022/03/20 13:26:39;;;;;;;;;;;20.00;99.70;;;;;;4953941;29;19911;-88
2022/03/20 13:29:05;;;;;;;;;;;20.30;99.50;;;;;;4953307;29;19918;-88
2022/03/20 13:31:31;;;;;;;;;;;20.10;99.10;;;;;;4953324;29;19970;-87
2022/03/20 13:33:59;;;;;;;;;;;20.20;99.70;;;;;;4953635;29;19950;-88
2022/03/20 13:36:25;;;;;;;;;;;20.50;99.30;;;;;;4953622;29;20391;-87
2022/03/20 13:38:52;;;;;;;;;;;20.80;99.40;;;;;;4953895;29;19922;-88
2022/03/20 13:41:26;;;;;;;;;;;21.10;99.30;;;;;;4952675;28;20379;-87
2022/03/20 13:43:58;;;;;;;;;;;21.20;98.50;;;;;;4953289;29;20359;-87
2022/03/20 13:46:29;;;;;;;;;;;21.10;99.50;;;;;;4953702;29;19917;-87
2022/03/20 13:48:58;;;;;;;;;;;21.30;99.00;;;;;;4953236;29;19914;-87
2022/03/20 13:51:24;;;;;;;;;;;21.30;98.50;;;;;;4953445;29;19911;-87
2022/03/20 13:54:29;;;;;;;;;;;21.20;98.40;;;;;;4936234;29;19917;-87
2022/03/20 13:57:14;;;;;;;;;;;21.40;98.70;;;;;;4893468;29;20145;-87
2022/03/20 13:59:55;;;;;;;;;;;21.50;98.50;;;;;;4893713;29;19927;-87
2022/03/20 14:02:22;;;;;;;;;;;21.60;97.90;;;;;;4922003;29;20050;-87
2022/03/20 14:04:50;;;;;;;;;;;21.10;98.40;;;;;;4934094;29;19918;-87
2022/03/20 14:07:19;;;;;;;;;;;20.90;98.20;;;;;;4934244;29;20011;-87
2022/03/20 14:09:46;;;;;;;;;;;20.70;98.90;;;;;;4934041;29;19922;-87
2022/03/20 14:12:27;;;;;;;;;;;21.00;98.40;;;;;;4934509;29;19910;-87
2022/03/20 14:14:54;;;;;;;;;;;21.10;98.60;;;;;;4934128;29;20295;-87
2022/03/20 14:17:35;;;;;;;;;;;21.30;98.00;;;;;;4932852;29;20031;-87
2022/03/20 14:20:01;;;;;;;;;;;21.30;98.10;;;;;;4932877;29;19980;-87
2022/03/20 14:22:42;;;;;;;;;;;21.60;98.40;;;;;;4932894;29;19918;-87
2022/03/20 14:25:08;;;;;;;;;;;22.10;98.30;;;;;;4933854;29;20450;-88
2022/03/20 14:27:36;;;;;;;;;;;22.50;97.60;;;;;;4933661;29;19911;-88
2022/03/20 14:41:25;;;;;;;;;;;23.70;96.00;;;;;;4933771;29;20290;-87
2022/03/20 14:44:07;;;;;;;;;;;24.00;95.80;;;;;;4933546;29;20423;-87
2022/03/20 14:46:33;;;;;;;;;;;24.40;94.70;;;;;;4933776;29;19918;-88
2022/03/20 14:48:58;;;;;;;;;;;24.50;94.90;;;;;;4933505;29;19922;-87
2022/03/20 14:51:24;;;;;;;;;;;24.80;93.70;;;;;;4948320;29;19970;-88
2022/03/20 14:53:50;;;;;;;;;;;24.70;93.90;;;;;;4933170;29;20076;-87
2022/03/20 14:56:16;;;;;;;;;;;24.80;94.10;;;;;;4932241;29;19911;-88
2022/03/20 14:58:43;;;;;;;;;;;25.80;93.70;;;;;;4949840;29;19929;-88